sensor_id;sensor_type;location;lat;lon;timestamp;temperature;humidity
7129;DHT22;3606;52.930;8.644;2023-04-03T00:01:10;0.00;99.90
7129;DHT22;3606;52.930;8.644;2023-04-03T00:03:36;-0.10;99.90
7129;DHT22;3606;52.930;8.644;2023-04-03T00:06:03;0.00;99.90
7129;DHT22;3606;52.930;8.644;2023-04-03T00:08:28;0.00;99.90
7129;DHT22;3606;52.930;8.644;2023-04-03T00:10:56;-0.10;99.90
7129;DHT22;3606;52.930;8.644;2023-04-03T00:13:22;-0.10;99.90
7129;DHT22;3606;52.930;8.644;2023-04-03T00:15:47;-0.10;99.90
7129;DHT22;3606;52.930;8.644;2023-04-03T00:18:13;-0.20;99.90
7129;DHT22;3606;52.930;8.644;2023-04-03T00:20:39;-0.30;99.90
7129;DHT22;3606;52.930;8.644;2023-04-03T00:23:04;-0.40;99.90
7129;DHT22;3606;52.930;8.644;2023-04-03T00:25:30;-0.40;99.90
7129;DHT22;3606;52.930;8.644;2023-04-03T00:27:55;-0.50;99.90
7129;DHT22;3606;52.930;8.644;2023-04-03T00:30:22;-0.50;99.90
7129;DHT22;3606;52.930;8.644;2023-04-03T00:32:48;-0.60;99.90
7129;DHT22;3606;52.930;8.644;2023-04-03T00:35:14;-0.70;99.90
7129;DHT22;3606;52.930;8.644;2023-04-03T00:37:41;-0.80;99.90
7129;DHT22;3606;52.930;8.644;2023-04-03T00:40:08;-0.90;99.90
7129;DHT22;3606;52.930;8.644;2023-04-03T00:42:36;-0.90;99.90
7129;DHT22;3606;52.930;8.644;2023-04-03T00:47:28;-1.00;99.90
7129;DHT22;3606;52.930;8.644;2023-04-03T00:49:54;-1.10;99.90
7129;DHT22;3606;52.930;8.644;2023-04-03T00:52:25;-1.20;99.90
7129;DHT22;3606;52.930;8.644;2023-04-03T00:54:54;-1.30;99.90
7129;DHT22;3606;52.930;8.644;2023-04-03T00:57:22;-1.50;99.90
7129;DHT22;3606;52.930;8.644;2023-04-03T00:59:57;-1.50;99.90
7129;DHT22;3606;52.930;8.644;2023-04-03T01:02:24;-1.60;99.90
7129;DHT22;3606;52.930;8.644;2023-04-03T01:04:51;-1.70;99.90
7129;DHT22;3606;52.930;8.644;2023-04-03T01:07:18;-1.70;99.90
7129;DHT22;3606;52.930;8.644;2023-04-03T01:09:48;-1.60;99.90
7129;DHT22;3606;52.930;8.644;2023-04-03T01:12:25;-1.60;99.90
7129;DHT22;3606;52.930;8.644;2023-04-03T01:14:54;-1.50;99.90
7129;DHT22;3606;52.930;8.644;2023-04-03T01:25:47;-1.30;99.90
7129;DHT22;3606;52.930;8.644;2023-04-03T01:28:22;-1.40;99.90
7129;DHT22;3606;52.930;8.644;2023-04-03T01:33:32;-1.30;99.90
7129;DHT22;3606;52.930;8.644;2023-04-03T01:35:57;-1.30;99.90
7129;DHT22;3606;52.930;8.644;2023-04-03T01:38:23;-1.20;99.90
7129;DHT22;3606;52.930;8.644;2023-04-03T01:40:49;-1.30;99.90
7129;DHT22;3606;52.930;8.644;2023-04-03T01:43:15;-1.30;99.90
7129;DHT22;3606;52.930;8.644;2023-04-03T01:45:41;-1.40;99.90
7129;DHT22;3606;52.930;8.644;2023-04-03T01:48:06;-1.60;99.90
7129;DHT22;3606;52.930;8.644;2023-04-03T01:50:32;-1.60;99.90
7129;DHT22;3606;52.930;8.644;2023-04-03T01:52:58;-1.60;99.90
7129;DHT22;3606;52.930;8.644;2023-04-03T01:55:23;-1.60;99.90
7129;DHT22;3606;52.930;8.644;2023-04-03T01:57:49;-1.60;99.90
7129;DHT22;3606;52.930;8.644;2023-04-03T02:00:15;-1.40;99.90
7129;DHT22;3606;52.930;8.644;2023-04-03T02:02:40;-1.40;99.90
7129;DHT22;3606;52.930;8.644;2023-04-03T02:05:06;-1.40;99.90
7129;DHT22;3606;52.930;8.644;2023-04-03T02:07:32;-1.50;99.90
7129;DHT22;3606;52.930;8.644;2023-04-03T02:09:57;-1.40;99.90
7129;DHT22;3606;52.930;8.644;2023-04-03T02:12:23;-1.40;99.90
7129;DHT22;3606;52.930;8.644;2023-04-03T02:14:48;-1.40;99.90
7129;DHT22;3606;52.930;8.644;2023-04-03T02:17:14;-1.40;99.90
7129;DHT22;3606;52.930;8.644;2023-04-03T02:19:40;-1.40;99.90
7129;DHT22;3606;52.930;8.644;2023-04-03T02:22:06;-1.50;99.90
7129;DHT22;3606;52.930;8.644;2023-04-03T02:24:32;-1.50;99.90
7129;DHT22;3606;52.930;8.644;2023-04-03T02:26:57;-1.50;99.90
7129;DHT22;3606;52.930;8.644;2023-04-03T02:29:23;-1.60;99.90
7129;DHT22;3606;52.930;8.644;2023-04-03T02:31:49;-1.50;99.90
7129;DHT22;3606;52.930;8.644;2023-04-03T02:34:15;-1.50;99.90
7129;DHT22;3606;52.930;8.644;2023-04-03T02:36:41;-1.50;99.90
7129;DHT22;3606;52.930;8.644;2023-04-03T02:39:07;-1.60;99.90
7129;DHT22;3606;52.930;8.644;2023-04-03T02:41:32;-1.60;99.90
7129;DHT22;3606;52.930;8.644;2023-04-03T02:44:02;-1.60;99.90
7129;DHT22;3606;52.930;8.644;2023-04-03T02:46:28;-1.60;99.90
7129;DHT22;3606;52.930;8.644;2023-04-03T02:48:54;-1.60;99.90
7129;DHT22;3606;52.930;8.644;2023-04-03T02:51:20;-1.50;99.90
7129;DHT22;3606;52.930;8.644;2023-04-03T02:53:45;-1.60;99.90
7129;DHT22;3606;52.930;8.644;2023-04-03T02:56:11;-1.60;99.90
7129;DHT22;3606;52.930;8.644;2023-04-03T02:58:36;-1.60;99.90
7129;DHT22;3606;52.930;8.644;2023-04-03T03:01:02;-1.60;99.90
7129;DHT22;3606;52.930;8.644;2023-04-03T03:03:28;-1.60;99.90
7129;DHT22;3606;52.930;8.644;2023-04-03T03:06:06;-1.60;99.90
7129;DHT22;3606;52.930;8.644;2023-04-03T03:08:32;-1.60;99.90
7129;DHT22;3606;52.930;8.644;2023-04-03T03:10:57;-1.70;99.90
7129;DHT22;3606;52.930;8.644;2023-04-03T03:13:23;-1.70;99.90
7129;DHT22;3606;52.930;8.644;2023-04-03T03:15:49;-1.60;99.90
7129;DHT22;3606;52.930;8.644;2023-04-03T03:18:14;-1.60;99.90
7129;DHT22;3606;52.930;8.644;2023-04-03T03:20:40;-1.70;99.90
7129;DHT22;3606;52.930;8.644;2023-04-03T03:23:06;-1.80;99.90
7129;DHT22;3606;52.930;8.644;2023-04-03T03:25:31;-1.80;99.90
7129;DHT22;3606;52.930;8.644;2023-04-03T03:27:57;-1.70;99.90
7129;DHT22;3606;52.930;8.644;2023-04-03T03:30:23;-1.80;99.90
7129;DHT22;3606;52.930;8.644;2023-04-03T03:32:48;-1.80;99.90
7129;DHT22;3606;52.930;8.644;2023-04-03T03:35:14;-1.80;99.90
7129;DHT22;3606;52.930;8.644;2023-04-03T03:37:39;-1.80;99.90
7129;DHT22;3606;52.930;8.644;2023-04-03T03:40:05;-1.70;99.90
7129;DHT22;3606;52.930;8.644;2023-04-03T03:42:31;-1.80;99.90
7129;DHT22;3606;52.930;8.644;2023-04-03T03:44:57;-1.80;99.90
7129;DHT22;3606;52.930;8.644;2023-04-03T03:47:22;-1.90;99.90
7129;DHT22;3606;52.930;8.644;2023-04-03T03:49:48;-1.90;99.90
7129;DHT22;3606;52.930;8.644;2023-04-03T03:52:13;-2.00;99.90
7129;DHT22;3606;52.930;8.644;2023-04-03T03:54:39;-1.90;99.90
7129;DHT22;3606;52.930;8.644;2023-04-03T03:57:05;-1.80;99.90
7129;DHT22;3606;52.930;8.644;2023-04-03T03:59:31;-1.90;99.90
7129;DHT22;3606;52.930;8.644;2023-04-03T04:01:56;-1.90;99.90
7129;DHT22;3606;52.930;8.644;2023-04-03T04:04:22;-2.00;99.90
7129;DHT22;3606;52.930;8.644;2023-04-03T04:06:47;-2.10;99.90
7129;DHT22;3606;52.930;8.644;2023-04-03T04:09:13;-2.20;99.90
7129;DHT22;3606;52.930;8.644;2023-04-03T04:11:38;-2.30;99.90
7129;DHT22;3606;52.930;8.644;2023-04-03T04:14:06;-2.40;99.90
7129;DHT22;3606;52.930;8.644;2023-04-03T04:16:32;-2.60;99.90
7129;DHT22;3606;52.930;8.644;2023-04-03T04:18:57;-2.70;99.90
7129;DHT22;3606;52.930;8.644;2023-04-03T04:21:23;-2.70;99.90
7129;DHT22;3606;52.930;8.644;2023-04-03T04:23:48;-2.60;99.90
7129;DHT22;3606;52.930;8.644;2023-04-03T04:26:14;-2.70;99.90
7129;DHT22;3606;52.930;8.644;2023-04-03T04:28:39;-2.50;99.90
7129;DHT22;3606;52.930;8.644;2023-04-03T04:31:05;-2.40;99.90
7129;DHT22;3606;52.930;8.644;2023-04-03T04:33:31;-2.40;99.90
7129;DHT22;3606;52.930;8.644;2023-04-03T04:35:56;-2.50;99.90
7129;DHT22;3606;52.930;8.644;2023-04-03T04:38:22;-2.50;99.90
7129;DHT22;3606;52.930;8.644;2023-04-03T04:40:48;-2.50;99.90
7129;DHT22;3606;52.930;8.644;2023-04-03T04:43:14;-2.50;99.90
7129;DHT22;3606;52.930;8.644;2023-04-03T04:45:40;-2.50;99.90
7129;DHT22;3606;52.930;8.644;2023-04-03T04:48:06;-2.50;99.90
7129;DHT22;3606;52.930;8.644;2023-04-03T04:50:32;-2.60;99.90
7129;DHT22;3606;52.930;8.644;2023-04-03T04:52:57;-2.60;99.90
7129;DHT22;3606;52.930;8.644;2023-04-03T04:55:23;-2.60;99.90
7129;DHT22;3606;52.930;8.644;2023-04-03T04:57:48;-2.50;99.90
7129;DHT22;3606;52.930;8.644;2023-04-03T05:00:14;-2.40;99.90
7129;DHT22;3606;52.930;8.644;2023-04-03T05:02:40;-2.30;99.90
7129;DHT22;3606;52.930;8.644;2023-04-03T05:05:06;-2.30;99.90
7129;DHT22;3606;52.930;8.644;2023-04-03T05:07:32;-2.30;99.90
7129;DHT22;3606;52.930;8.644;2023-04-03T05:09:58;-2.20;99.90
7129;DHT22;3606;52.930;8.644;2023-04-03T05:12:23;-2.20;99.90
7129;DHT22;3606;52.930;8.644;2023-04-03T05:14:49;-2.20;99.90
7129;DHT22;3606;52.930;8.644;2023-04-03T05:17:15;-2.00;99.90
7129;DHT22;3606;52.930;8.644;2023-04-03T05:19:40;-2.10;99.90
7129;DHT22;3606;52.930;8.644;2023-04-03T05:22:06;-2.10;99.90
7129;DHT22;3606;52.930;8.644;2023-04-03T05:24:32;-2.00;99.90
7129;DHT22;3606;52.930;8.644;2023-04-03T05:26:57;-2.10;99.90
7129;DHT22;3606;52.930;8.644;2023-04-03T05:29:23;-2.00;99.90
7129;DHT22;3606;52.930;8.644;2023-04-03T05:31:51;-2.00;99.90
7129;DHT22;3606;52.930;8.644;2023-04-03T05:34:17;-1.90;99.90
7129;DHT22;3606;52.930;8.644;2023-04-03T05:36:42;-1.90;99.90
7129;DHT22;3606;52.930;8.644;2023-04-03T05:39:08;-1.80;99.90
7129;DHT22;3606;52.930;8.644;2023-04-03T05:41:34;-1.70;99.90
7129;DHT22;3606;52.930;8.644;2023-04-03T05:44:00;-1.60;99.90
7129;DHT22;3606;52.930;8.644;2023-04-03T05:46:25;-1.60;99.90
7129;DHT22;3606;52.930;8.644;2023-04-03T05:48:51;-1.50;99.90
7129;DHT22;3606;52.930;8.644;2023-04-03T05:51:23;-1.50;99.90
7129;DHT22;3606;52.930;8.644;2023-04-03T05:54:28;-1.40;99.90
7129;DHT22;3606;52.930;8.644;2023-04-03T05:56:48;-1.20;99.90
7129;DHT22;3606;52.930;8.644;2023-04-03T05:59:15;-0.90;99.90
7129;DHT22;3606;52.930;8.644;2023-04-03T06:01:40;-0.60;99.90
7129;DHT22;3606;52.930;8.644;2023-04-03T06:04:06;-0.20;99.90
7129;DHT22;3606;52.930;8.644;2023-04-03T06:06:44;0.10;99.90
7129;DHT22;3606;52.930;8.644;2023-04-03T06:09:10;0.40;99.90
7129;DHT22;3606;52.930;8.644;2023-04-03T06:11:36;0.70;99.90
7129;DHT22;3606;52.930;8.644;2023-04-03T06:14:02;1.00;99.90
7129;DHT22;3606;52.930;8.644;2023-04-03T06:16:28;1.40;99.90
7129;DHT22;3606;52.930;8.644;2023-04-03T06:18:54;1.70;99.90
7129;DHT22;3606;52.930;8.644;2023-04-03T06:21:20;2.10;99.90
7129;DHT22;3606;52.930;8.644;2023-04-03T06:23:46;2.50;99.90
7129;DHT22;3606;52.930;8.644;2023-04-03T06:26:11;2.70;99.90
7129;DHT22;3606;52.930;8.644;2023-04-03T06:28:37;3.10;99.90
7129;DHT22;3606;52.930;8.644;2023-04-03T06:31:02;3.50;99.90
7129;DHT22;3606;52.930;8.644;2023-04-03T06:33:28;3.70;15.90
7129;DHT22;3606;52.930;8.644;2023-04-03T06:36:03;3.90;1.00
7129;DHT22;3606;52.930;8.644;2023-04-03T06:38:28;4.20;1.00
7129;DHT22;3606;52.930;8.644;2023-04-03T06:40:54;4.30;5.40
7129;DHT22;3606;52.930;8.644;2023-04-03T06:43:21;4.50;1.00
7129;DHT22;3606;52.930;8.644;2023-04-03T06:45:47;4.80;1.00
7129;DHT22;3606;52.930;8.644;2023-04-03T06:48:12;5.10;1.00
7129;DHT22;3606;52.930;8.644;2023-04-03T06:50:38;5.30;1.00
7129;DHT22;3606;52.930;8.644;2023-04-03T06:53:04;5.60;99.90
7129;DHT22;3606;52.930;8.644;2023-04-03T06:55:31;5.50;99.90
7129;DHT22;3606;52.930;8.644;2023-04-03T06:57:57;5.80;99.90
7129;DHT22;3606;52.930;8.644;2023-04-03T07:00:22;6.10;99.90
7129;DHT22;3606;52.930;8.644;2023-04-03T07:02:48;6.10;99.90
7129;DHT22;3606;52.930;8.644;2023-04-03T07:05:13;6.10;99.90
7129;DHT22;3606;52.930;8.644;2023-04-03T07:07:39;6.30;99.90
7129;DHT22;3606;52.930;8.644;2023-04-03T07:10:07;6.90;99.90
7129;DHT22;3606;52.930;8.644;2023-04-03T07:12:33;7.00;1.00
7129;DHT22;3606;52.930;8.644;2023-04-03T07:14:59;7.10;1.00
7129;DHT22;3606;52.930;8.644;2023-04-03T07:17:24;7.10;1.00
7129;DHT22;3606;52.930;8.644;2023-04-03T07:19:51;7.70;1.00
7129;DHT22;3606;52.930;8.644;2023-04-03T07:22:16;7.60;1.00
7129;DHT22;3606;52.930;8.644;2023-04-03T07:24:42;8.10;1.00
7129;DHT22;3606;52.930;8.644;2023-04-03T07:27:08;8.40;99.90
7129;DHT22;3606;52.930;8.644;2023-04-03T07:29:34;8.80;99.90
7129;DHT22;3606;52.930;8.644;2023-04-03T07:32:01;9.00;99.90
7129;DHT22;3606;52.930;8.644;2023-04-03T07:34:27;8.90;1.00
7129;DHT22;3606;52.930;8.644;2023-04-03T07:36:53;8.70;1.00
7129;DHT22;3606;52.930;8.644;2023-04-03T07:39:18;8.10;1.00
7129;DHT22;3606;52.930;8.644;2023-04-03T07:41:44;8.00;99.90
7129;DHT22;3606;52.930;8.644;2023-04-03T07:44:11;8.40;47.50
7129;DHT22;3606;52.930;8.644;2023-04-03T07:46:37;8.30;39.60
7129;DHT22;3606;52.930;8.644;2023-04-03T07:49:03;8.60;1.00
7129;DHT22;3606;52.930;8.644;2023-04-03T07:51:28;8.60;1.00
7129;DHT22;3606;52.930;8.644;2023-04-03T07:53:55;8.60;1.00
7129;DHT22;3606;52.930;8.644;2023-04-03T07:56:21;9.30;1.00
7129;DHT22;3606;52.930;8.644;2023-04-03T07:58:46;9.60;1.00
7129;DHT22;3606;52.930;8.644;2023-04-03T08:01:12;9.30;99.90
7129;DHT22;3606;52.930;8.644;2023-04-03T08:03:39;9.60;80.20
7129;DHT22;3606;52.930;8.644;2023-04-03T08:06:06;10.30;99.90
7129;DHT22;3606;52.930;8.644;2023-04-03T08:08:32;10.40;99.90
7129;DHT22;3606;52.930;8.644;2023-04-03T08:10:59;10.90;99.90
7129;DHT22;3606;52.930;8.644;2023-04-03T08:13:26;11.00;99.90
7129;DHT22;3606;52.930;8.644;2023-04-03T08:15:52;10.70;99.90
7129;DHT22;3606;52.930;8.644;2023-04-03T08:18:17;10.50;99.90
7129;DHT22;3606;52.930;8.644;2023-04-03T08:20:46;10.50;99.90
7129;DHT22;3606;52.930;8.644;2023-04-03T08:23:12;11.00;99.90
7129;DHT22;3606;52.930;8.644;2023-04-03T08:25:40;11.40;99.90
7129;DHT22;3606;52.930;8.644;2023-04-03T08:28:06;11.70;99.90
7129;DHT22;3606;52.930;8.644;2023-04-03T08:30:32;12.20;99.90
7129;DHT22;3606;52.930;8.644;2023-04-03T08:33:01;11.70;99.90
7129;DHT22;3606;52.930;8.644;2023-04-03T08:35:27;12.30;99.90
7129;DHT22;3606;52.930;8.644;2023-04-03T08:37:52;12.70;99.90
7129;DHT22;3606;52.930;8.644;2023-04-03T08:40:18;12.80;99.90
7129;DHT22;3606;52.930;8.644;2023-04-03T08:45:43;12.50;99.90
7129;DHT22;3606;52.930;8.644;2023-04-03T08:48:22;12.70;99.90
7129;DHT22;3606;52.930;8.644;2023-04-03T08:50:56;12.60;99.90
7129;DHT22;3606;52.930;8.644;2023-04-03T08:53:28;12.30;99.90
7129;DHT22;3606;52.930;8.644;2023-04-03T08:55:56;12.90;99.90
7129;DHT22;3606;52.930;8.644;2023-04-03T08:58:30;13.10;99.90
7129;DHT22;3606;52.930;8.644;2023-04-03T09:01:06;12.70;99.90
7129;DHT22;3606;52.930;8.644;2023-04-03T09:03:40;13.00;99.90
7129;DHT22;3606;52.930;8.644;2023-04-03T09:09:47;14.30;99.90
7129;DHT22;3606;52.930;8.644;2023-04-03T09:12:11;14.40;99.90
7129;DHT22;3606;52.930;8.644;2023-04-03T09:23:28;14.30;99.90
7129;DHT22;3606;52.930;8.644;2023-04-03T09:26:04;14.10;99.90
7129;DHT22;3606;52.930;8.644;2023-04-03T09:28:34;14.10;99.90
7129;DHT22;3606;52.930;8.644;2023-04-03T09:31:02;14.10;99.90
7129;DHT22;3606;52.930;8.644;2023-04-03T09:33:32;14.50;99.90
7129;DHT22;3606;52.930;8.644;2023-04-03T09:35:59;15.10;99.90
7129;DHT22;3606;52.930;8.644;2023-04-03T09:38:24;14.90;99.90
7129;DHT22;3606;52.930;8.644;2023-04-03T09:41:21;14.60;99.90
7129;DHT22;3606;52.930;8.644;2023-04-03T09:43:53;15.50;99.90
7129;DHT22;3606;52.930;8.644;2023-04-03T09:46:31;16.00;99.90
7129;DHT22;3606;52.930;8.644;2023-04-03T09:48:59;16.60;99.90
7129;DHT22;3606;52.930;8.644;2023-04-03T09:51:28;17.00;99.90
7129;DHT22;3606;52.930;8.644;2023-04-03T09:53:55;16.90;99.90
7129;DHT22;3606;52.930;8.644;2023-04-03T09:56:27;16.10;99.90
7129;DHT22;3606;52.930;8.644;2023-04-03T10:06:41;17.30;99.90
7129;DHT22;3606;52.930;8.644;2023-04-03T10:14:41;17.20;99.90
7129;DHT22;3606;52.930;8.644;2023-04-03T10:19:55;17.20;99.90
7129;DHT22;3606;52.930;8.644;2023-04-03T10:25:12;16.30;99.90
7129;DHT22;3606;52.930;8.644;2023-04-03T10:30:41;15.70;99.90
7129;DHT22;3606;52.930;8.644;2023-04-03T10:38:51;17.60;99.90
7129;DHT22;3606;52.930;8.644;2023-04-03T10:41:42;16.80;99.90
7129;DHT22;3606;52.930;8.644;2023-04-03T10:46:51;17.50;99.90
7129;DHT22;3606;52.930;8.644;2023-04-03T10:49:36;17.50;99.90
7129;DHT22;3606;52.930;8.644;2023-04-03T10:52:20;17.00;99.90
7129;DHT22;3606;52.930;8.644;2023-04-03T10:55:16;15.20;99.90
7129;DHT22;3606;52.930;8.644;2023-04-03T10:57:49;15.60;99.90
7129;DHT22;3606;52.930;8.644;2023-04-03T11:01:01;16.60;99.90
7129;DHT22;3606;52.930;8.644;2023-04-03T11:03:32;16.40;99.90
7129;DHT22;3606;52.930;8.644;2023-04-03T11:05:59;16.90;99.90
7129;DHT22;3606;52.930;8.644;2023-04-03T11:11:00;16.40;99.90
7129;DHT22;3606;52.930;8.644;2023-04-03T11:13:33;16.40;99.90
7129;DHT22;3606;52.930;8.644;2023-04-03T11:15:59;16.90;99.90
7129;DHT22;3606;52.930;8.644;2023-04-03T11:21:33;16.90;99.90
7129;DHT22;3606;52.930;8.644;2023-04-03T11:24:03;16.80;99.90
7129;DHT22;3606;52.930;8.644;2023-04-03T11:26:36;15.40;99.90
7129;DHT22;3606;52.930;8.644;2023-04-03T11:29:11;14.40;99.90
7129;DHT22;3606;52.930;8.644;2023-04-03T11:36:56;13.70;99.90
7129;DHT22;3606;52.930;8.644;2023-04-03T11:39:31;11.80;99.90
7129;DHT22;3606;52.930;8.644;2023-04-03T11:42:27;10.90;99.90
7129;DHT22;3606;52.930;8.644;2023-04-03T11:48:41;11.90;99.90
7129;DHT22;3606;52.930;8.644;2023-04-03T11:50:54;10.40;99.90
7129;DHT22;3606;52.930;8.644;2023-04-03T11:53:37;9.70;99.90
7129;DHT22;3606;52.930;8.644;2023-04-03T12:04:10;13.60;99.90
7129;DHT22;3606;52.930;8.644;2023-04-03T12:12:00;13.60;99.90
7129;DHT22;3606;52.930;8.644;2023-04-03T12:14:43;14.60;99.90
7129;DHT22;3606;52.930;8.644;2023-04-03T12:17:25;14.50;99.90
7129;DHT22;3606;52.930;8.644;2023-04-03T12:19:51;13.90;99.90
7129;DHT22;3606;52.930;8.644;2023-04-03T12:22:20;13.80;99.90
7129;DHT22;3606;52.930;8.644;2023-04-03T12:24:48;14.00;99.90
7129;DHT22;3606;52.930;8.644;2023-04-03T12:32:45;13.90;99.90
7129;DHT22;3606;52.930;8.644;2023-04-03T12:43:41;12.60;99.90
7129;DHT22;3606;52.930;8.644;2023-04-03T12:48:51;11.60;99.90
7129;DHT22;3606;52.930;8.644;2023-04-03T12:51:38;11.00;99.90
7129;DHT22;3606;52.930;8.644;2023-04-03T12:54:38;11.60;99.90
7129;DHT22;3606;52.930;8.644;2023-04-03T12:59:36;13.70;99.90
7129;DHT22;3606;52.930;8.644;2023-04-03T13:02:17;14.10;99.90
7129;DHT22;3606;52.930;8.644;2023-04-03T13:04:45;14.10;99.90
7129;DHT22;3606;52.930;8.644;2023-04-03T13:12:49;16.30;99.90
7129;DHT22;3606;52.930;8.644;2023-04-03T13:15:25;17.00;99.90
7129;DHT22;3606;52.930;8.644;2023-04-03T13:17:52;17.70;99.90
7129;DHT22;3606;52.930;8.644;2023-04-03T13:22:51;14.50;99.90
7129;DHT22;3606;52.930;8.644;2023-04-03T13:25:18;13.00;99.90
7129;DHT22;3606;52.930;8.644;2023-04-03T13:27:45;11.70;99.90
7129;DHT22;3606;52.930;8.644;2023-04-03T13:30:25;11.00;99.90
7129;DHT22;3606;52.930;8.644;2023-04-03T13:32:52;10.50;99.90
7129;DHT22;3606;52.930;8.644;2023-04-03T13:38:02;14.50;99.90
7129;DHT22;3606;52.930;8.644;2023-04-03T13:40:28;15.40;99.90
7129;DHT22;3606;52.930;8.644;2023-04-03T13:43:14;16.80;99.90
7129;DHT22;3606;52.930;8.644;2023-04-03T13:45:54;17.10;99.90
7129;DHT22;3606;52.930;8.644;2023-04-03T13:48:21;18.00;99.90
7129;DHT22;3606;52.930;8.644;2023-04-03T13:50:59;18.50;99.90
7129;DHT22;3606;52.930;8.644;2023-04-03T13:53:26;18.40;99.90
7129;DHT22;3606;52.930;8.644;2023-04-03T13:56:08;18.70;99.90
7129;DHT22;3606;52.930;8.644;2023-04-03T13:58:35;18.90;99.90
7129;DHT22;3606;52.930;8.644;2023-04-03T14:01:17;18.70;99.90
7129;DHT22;3606;52.930;8.644;2023-04-03T14:06:14;18.40;99.90
7129;DHT22;3606;52.930;8.644;2023-04-03T14:08:41;18.20;99.90
7129;DHT22;3606;52.930;8.644;2023-04-03T14:11:13;18.30;99.90
7129;DHT22;3606;52.930;8.644;2023-04-03T14:13:40;18.20;99.90
7129;DHT22;3606;52.930;8.644;2023-04-03T14:16:06;16.80;99.90
7129;DHT22;3606;52.930;8.644;2023-04-03T14:18:31;16.50;99.90
7129;DHT22;3606;52.930;8.644;2023-04-03T14:20:57;14.80;99.90
7129;DHT22;3606;52.930;8.644;2023-04-03T14:23:23;14.30;99.90
7129;DHT22;3606;52.930;8.644;2023-04-03T14:25:48;15.00;99.90
7129;DHT22;3606;52.930;8.644;2023-04-03T14:28:20;14.80;99.90
7129;DHT22;3606;52.930;8.644;2023-04-03T14:30:49;15.70;99.90
7129;DHT22;3606;52.930;8.644;2023-04-03T14:33:19;16.40;99.90
7129;DHT22;3606;52.930;8.644;2023-04-03T14:35:46;16.80;99.90
7129;DHT22;3606;52.930;8.644;2023-04-03T14:38:25;16.50;99.90
7129;DHT22;3606;52.930;8.644;2023-04-03T14:40:53;15.90;99.90
7129;DHT22;3606;52.930;8.644;2023-04-03T14:43:19;16.10;99.90
7129;DHT22;3606;52.930;8.644;2023-04-03T14:45:46;15.80;99.90
7129;DHT22;3606;52.930;8.644;2023-04-03T14:48:18;15.00;99.90
7129;DHT22;3606;52.930;8.644;2023-04-03T14:50:44;12.60;99.90
7129;DHT22;3606;52.930;8.644;2023-04-03T14:53:11;11.50;99.90
7129;DHT22;3606;52.930;8.644;2023-04-03T14:55:38;12.40;99.90
7129;DHT22;3606;52.930;8.644;2023-04-03T14:58:03;14.60;99.90
7129;DHT22;3606;52.930;8.644;2023-04-03T15:00:29;15.70;99.90
7129;DHT22;3606;52.930;8.644;2023-04-03T15:02:54;15.70;99.90
7129;DHT22;3606;52.930;8.644;2023-04-03T15:05:20;14.90;99.90
7129;DHT22;3606;52.930;8.644;2023-04-03T15:07:53;13.40;99.90
7129;DHT22;3606;52.930;8.644;2023-04-03T15:10:20;11.70;99.90
7129;DHT22;3606;52.930;8.644;2023-04-03T15:12:47;10.70;99.90
7129;DHT22;3606;52.930;8.644;2023-04-03T15:15:18;10.10;99.90
7129;DHT22;3606;52.930;8.644;2023-04-03T15:17:45;10.20;99.90
7129;DHT22;3606;52.930;8.644;2023-04-03T15:20:18;11.80;99.90
7129;DHT22;3606;52.930;8.644;2023-04-03T15:22:44;13.10;99.90
7129;DHT22;3606;52.930;8.644;2023-04-03T15:25:10;14.40;99.90
7129;DHT22;3606;52.930;8.644;2023-04-03T15:27:37;15.00;99.90
7129;DHT22;3606;52.930;8.644;2023-04-03T15:30:07;15.40;99.90
7129;DHT22;3606;52.930;8.644;2023-04-03T15:32:33;13.50;99.90
7129;DHT22;3606;52.930;8.644;2023-04-03T15:35:00;12.40;99.90
7129;DHT22;3606;52.930;8.644;2023-04-03T15:37:26;11.90;99.90
7129;DHT22;3606;52.930;8.644;2023-04-03T15:39:52;11.30;99.90
7129;DHT22;3606;52.930;8.644;2023-04-03T15:42:17;10.70;99.90
7129;DHT22;3606;52.930;8.644;2023-04-03T15:44:43;10.30;99.90
7129;DHT22;3606;52.930;8.644;2023-04-03T15:47:09;9.80;99.90
7129;DHT22;3606;52.930;8.644;2023-04-03T15:49:34;9.30;99.90
7129;DHT22;3606;52.930;8.644;2023-04-03T15:52:00;8.90;99.90
7129;DHT22;3606;52.930;8.644;2023-04-03T15:54:26;8.60;99.90
7129;DHT22;3606;52.930;8.644;2023-04-03T15:56:52;8.30;99.90
7129;DHT22;3606;52.930;8.644;2023-04-03T15:59:18;8.30;99.90
7129;DHT22;3606;52.930;8.644;2023-04-03T16:01:44;8.30;99.90
7129;DHT22;3606;52.930;8.644;2023-04-03T16:04:10;8.30;99.90
7129;DHT22;3606;52.930;8.644;2023-04-03T16:06:36;8.30;99.90
7129;DHT22;3606;52.930;8.644;2023-04-03T16:09:03;8.50;99.90
7129;DHT22;3606;52.930;8.644;2023-04-03T16:11:29;8.70;99.90
7129;DHT22;3606;52.930;8.644;2023-04-03T16:13:55;8.90;99.90
7129;DHT22;3606;52.930;8.644;2023-04-03T16:16:22;8.90;99.90
7129;DHT22;3606;52.930;8.644;2023-04-03T16:18:48;8.80;99.90
7129;DHT22;3606;52.930;8.644;2023-04-03T16:21:15;8.70;99.90
7129;DHT22;3606;52.930;8.644;2023-04-03T16:23:42;8.80;99.90
7129;DHT22;3606;52.930;8.644;2023-04-03T16:26:08;8.60;99.90
7129;DHT22;3606;52.930;8.644;2023-04-03T16:28:33;8.50;99.90
7129;DHT22;3606;52.930;8.644;2023-04-03T16:31:00;8.20;99.90
7129;DHT22;3606;52.930;8.644;2023-04-03T16:33:27;8.10;99.90
7129;DHT22;3606;52.930;8.644;2023-04-03T16:35:53;7.90;99.90
7129;DHT22;3606;52.930;8.644;2023-04-03T16:38:18;7.80;99.90
7129;DHT22;3606;52.930;8.644;2023-04-03T16:40:45;7.80;99.90
7129;DHT22;3606;52.930;8.644;2023-04-03T16:43:11;7.70;99.90
7129;DHT22;3606;52.930;8.644;2023-04-03T16:45:37;7.70;99.90
7129;DHT22;3606;52.930;8.644;2023-04-03T16:48:02;7.60;99.90
7129;DHT22;3606;52.930;8.644;2023-04-03T16:50:28;7.60;99.90
7129;DHT22;3606;52.930;8.644;2023-04-03T16:52:54;7.60;99.90
7129;DHT22;3606;52.930;8.644;2023-04-03T16:55:19;7.50;99.90
7129;DHT22;3606;52.930;8.644;2023-04-03T16:57:46;7.50;99.90
7129;DHT22;3606;52.930;8.644;2023-04-03T17:00:12;7.60;99.90
7129;DHT22;3606;52.930;8.644;2023-04-03T17:02:39;7.60;99.90
7129;DHT22;3606;52.930;8.644;2023-04-03T17:05:05;7.60;99.90
7129;DHT22;3606;52.930;8.644;2023-04-03T17:07:31;7.60;99.90
7129;DHT22;3606;52.930;8.644;2023-04-03T17:09:56;7.50;99.90
7129;DHT22;3606;52.930;8.644;2023-04-03T17:12:22;7.40;99.90
7129;DHT22;3606;52.930;8.644;2023-04-03T17:14:48;7.30;99.90
7129;DHT22;3606;52.930;8.644;2023-04-03T17:17:14;7.20;99.90
7129;DHT22;3606;52.930;8.644;2023-04-03T17:19:41;7.00;99.90
7129;DHT22;3606;52.930;8.644;2023-04-03T17:22:08;7.00;99.90
7129;DHT22;3606;52.930;8.644;2023-04-03T17:24:35;6.90;99.90
7129;DHT22;3606;52.930;8.644;2023-04-03T17:27:01;6.80;99.90
7129;DHT22;3606;52.930;8.644;2023-04-03T17:29:27;6.70;99.90
7129;DHT22;3606;52.930;8.644;2023-04-03T17:31:53;6.60;99.90
7129;DHT22;3606;52.930;8.644;2023-04-03T17:34:18;6.60;99.90
7129;DHT22;3606;52.930;8.644;2023-04-03T17:36:44;6.50;99.90
7129;DHT22;3606;52.930;8.644;2023-04-03T17:39:10;6.50;99.90
7129;DHT22;3606;52.930;8.644;2023-04-03T17:41:36;6.40;99.90
7129;DHT22;3606;52.930;8.644;2023-04-03T17:44:02;6.20;99.90
7129;DHT22;3606;52.930;8.644;2023-04-03T17:46:28;6.00;99.90
7129;DHT22;3606;52.930;8.644;2023-04-03T17:48:54;5.90;99.90
7129;DHT22;3606;52.930;8.644;2023-04-03T17:51:22;5.90;99.90
7129;DHT22;3606;52.930;8.644;2023-04-03T17:53:48;5.80;99.90
7129;DHT22;3606;52.930;8.644;2023-04-03T17:56:20;5.70;99.90
7129;DHT22;3606;52.930;8.644;2023-04-03T17:58:47;5.50;99.90
7129;DHT22;3606;52.930;8.644;2023-04-03T18:03:40;5.30;99.90
7129;DHT22;3606;52.930;8.644;2023-04-03T18:06:09;5.20;99.90
7129;DHT22;3606;52.930;8.644;2023-04-03T18:08:39;5.00;99.90
7129;DHT22;3606;52.930;8.644;2023-04-03T18:11:05;4.80;99.90
7129;DHT22;3606;52.930;8.644;2023-04-03T18:13:31;4.70;99.90